Dresden International Airport

Airport
ICAO code: 
EDDC
IATA Code: 
DRS
Summary
ICAO Region: 
EUR
Territory: 
Location: 
Klotzsche, Dresden,
Serving: 
Dresden
Elevation: 
754 ft
Coordinates: 
Aerial View: 
51° 7' 57.737" N, 13° 45' 59.498" E
Metar
Observation
EDDC 210220Z 29010KT 250V320 9999 BKN040 M02/M07 Q1023
Station
Dresden-Klotzsche
Date/Time
2022-01-21 02:20:00
Wind direction
290°
Wind speed
10 kts
Lowest cloud amount
broken clouds
Temperature
-2°C
Dew point
-7°C
Humidity
68%
QNH
1023 hPa
Weather condition
n/a

Description

Dresden Airport, formerly known as Dresden-Klotzsche, is the international airport of Dresden, Germany. It is located in Klotzsche, a district of Dresden 9 km north of the city centre. As of September 2008, the airport styles itself as "Dresden International".

Climatology

Temperate Marine climate/Oceanic climate (Köppen climate classification Cfb) - Moderately cool summer and comparatively warm winter.

Runways

Designator Length Width Surface Rops
4/22 2508 51 CON Yes/Yes
Airport map: 
Aerial View: 

Accidents and Serious Incidents at or in the vicinity of EDDC

SKYbrary Partners:

Safety knowledge contributed by: